createdAt,value
2018-11-14T00:00:22.446Z,5.27
2018-11-14T00:03:13.926Z,4.33
2018-11-14T00:05:42.916Z,4.20
2018-11-14T00:08:12.954Z,4.37
2018-11-14T00:11:06.007Z,4.60
2018-11-14T00:13:35.707Z,4.47
2018-11-14T00:16:09.103Z,4.00
2018-11-14T00:18:41.866Z,4.70
2018-11-14T00:21:11.110Z,4.63
2018-11-14T00:23:47.305Z,4.60
2018-11-14T00:26:18.237Z,4.53
2018-11-14T00:31:42.801Z,4.40
2018-11-14T00:34:21.632Z,4.57
2018-11-14T00:36:55.267Z,4.60
2018-11-14T00:39:27.978Z,5.03
2018-11-14T00:42:10.768Z,4.77
2018-11-14T00:44:46.140Z,5.40
2018-11-14T00:47:19.529Z,4.43
2018-11-14T00:49:50.551Z,4.70
2018-11-14T00:52:24.157Z,5.10
2018-11-14T00:55:09.295Z,5.00
2018-11-14T01:00:31.942Z,5.27
2018-11-14T01:03:07.056Z,4.87
2018-11-14T01:08:52.340Z,4.90
2018-11-14T01:11:25.078Z,4.50
2018-11-14T01:13:56.051Z,4.90
2018-11-14T01:16:27.293Z,5.20
2018-11-14T01:19:00.537Z,5.10
2018-11-14T01:21:30.101Z,5.10
2018-11-14T01:23:59.557Z,4.80
2018-11-14T01:26:32.735Z,5.17
2018-11-14T01:29:14.130Z,4.87
2018-11-14T01:31:53.646Z,5.10
2018-11-14T01:34:23.231Z,4.70
2018-11-14T01:39:52.985Z,4.33
2018-11-14T01:42:23.978Z,5.00
2018-11-14T01:45:02.295Z,4.60
2018-11-14T01:47:31.297Z,4.50
2018-11-14T01:50:00.258Z,5.43
2018-11-14T01:58:26.475Z,4.53
2018-11-14T02:00:55.370Z,5.17
2018-11-14T02:03:24.256Z,4.63
2018-11-14T02:05:54.282Z,5.10
2018-11-14T02:08:24.233Z,4.83
2018-11-14T02:11:04.268Z,4.10
2018-11-14T02:13:40.803Z,4.83
2018-11-14T02:16:09.715Z,4.87
2018-11-14T02:18:38.625Z,4.30
2018-11-14T02:21:07.555Z,4.57
2018-11-14T02:23:36.419Z,4.70
2018-11-14T02:26:05.656Z,4.90
2018-11-14T02:28:36.558Z,4.93
2018-11-14T02:31:05.684Z,4.70
2018-11-14T02:33:35.587Z,4.93
2018-11-14T02:36:04.509Z,4.63
2018-11-14T02:38:33.436Z,4.50
2018-11-14T02:41:02.462Z,4.50
2018-11-14T02:43:31.369Z,4.30
2018-11-14T02:46:00.246Z,4.63
2018-11-14T02:48:29.224Z,5.17
2018-11-14T02:51:09.503Z,5.23
2018-11-14T02:53:38.366Z,4.97
2018-11-14T02:56:09.664Z,4.93
2018-11-14T02:58:38.724Z,4.50
2018-11-14T03:01:12.829Z,4.93
2018-11-14T03:03:53.744Z,5.17
2018-11-14T03:06:34.276Z,5.43
2018-11-14T03:09:03.994Z,5.50
2018-11-14T03:11:33.892Z,5.13
2018-11-14T03:14:12.920Z,4.67
2018-11-14T03:16:45.195Z,5.00
2018-11-14T03:19:17.269Z,5.43
2018-11-14T03:21:46.799Z,5.50
2018-11-14T03:24:23.284Z,4.90
2018-11-14T03:26:53.337Z,5.07
2018-11-14T03:29:22.255Z,5.00
2018-11-14T03:31:51.139Z,5.20
2018-11-14T03:34:20.072Z,5.27
2018-11-14T03:37:02.851Z,5.07
2018-11-14T03:39:35.799Z,4.77
2018-11-14T03:42:21.515Z,5.00
2018-11-14T03:44:50.632Z,5.17
2018-11-14T03:47:25.136Z,5.23
2018-11-14T03:49:54.051Z,5.30
2018-11-14T03:52:24.117Z,5.70
2018-11-14T03:54:53.031Z,5.13
2018-11-14T03:57:24.057Z,6.13
2018-11-14T03:59:54.161Z,5.90
2018-11-14T04:02:27.549Z,5.27
2018-11-14T04:05:00.273Z,5.20
2018-11-14T04:07:29.141Z,5.30
2018-11-14T04:09:58.056Z,5.47
2018-11-14T04:12:26.978Z,5.80
2018-11-14T04:14:55.890Z,5.23
2018-11-14T04:17:37.699Z,5.23
2018-11-14T04:20:13.891Z,5.40
2018-11-14T04:22:44.007Z,5.40
2018-11-14T04:25:22.443Z,5.50
2018-11-14T04:27:51.415Z,5.37
2018-11-14T04:30:21.518Z,5.67
2018-11-14T04:32:50.713Z,5.80
2018-11-14T04:35:20.521Z,5.73
2018-11-14T04:37:49.527Z,5.70
2018-11-14T04:40:20.365Z,5.93
2018-11-14T04:42:55.000Z,5.70
2018-11-14T04:45:44.875Z,5.73
2018-11-14T04:48:14.854Z,5.93
2018-11-14T04:50:43.777Z,6.00
2018-11-14T04:53:14.756Z,5.97
2018-11-14T04:56:01.239Z,6.20
2018-11-14T04:58:31.165Z,5.77
2018-11-14T05:01:13.132Z,5.70
2018-11-14T05:03:42.038Z,5.67
2018-11-14T05:06:14.724Z,6.70
2018-11-14T05:08:49.582Z,6.20
2018-11-14T05:11:18.538Z,5.80
2018-11-14T05:13:52.254Z,5.77
2018-11-14T05:16:22.447Z,5.77
2018-11-14T05:18:51.370Z,6.50
2018-11-14T05:21:20.523Z,5.73
2018-11-14T05:23:51.945Z,5.70
2018-11-14T05:26:25.856Z,5.43
2018-11-14T05:28:56.831Z,6.27
2018-11-14T05:31:31.551Z,6.20
2018-11-14T05:34:04.794Z,6.47
2018-11-14T05:36:33.696Z,5.67
2018-11-14T05:39:02.602Z,5.73
2018-11-14T05:41:31.471Z,6.00
2018-11-14T05:44:01.485Z,5.73
2018-11-14T05:46:35.729Z,5.97
2018-11-14T05:49:09.512Z,5.90
2018-11-14T05:54:49.964Z,5.67
2018-11-14T05:57:22.076Z,6.27
2018-11-14T05:59:50.957Z,6.00
2018-11-14T06:02:19.872Z,6.17
2018-11-14T06:08:00.070Z,5.60
2018-11-14T06:10:34.944Z,5.77
2018-11-14T06:13:04.013Z,6.33
2018-11-14T06:15:32.875Z,6.50
2018-11-14T06:18:03.937Z,6.33
2018-11-14T06:20:33.073Z,6.70
2018-11-14T06:23:13.517Z,6.40
2018-11-14T06:25:46.984Z,6.70
2018-11-14T06:28:22.711Z,6.50
2018-11-14T06:30:56.127Z,5.97
2018-11-14T06:36:36.857Z,6.17
2018-11-14T06:39:10.472Z,6.07
2018-11-14T06:44:51.617Z,5.60
2018-11-14T06:47:22.641Z,5.67
2018-11-14T06:50:02.281Z,5.80
2018-11-14T06:52:48.217Z,5.03
2018-11-14T07:01:20.911Z,5.83
2018-11-14T07:03:54.550Z,5.90
2018-11-14T07:06:42.452Z,5.33
2018-11-14T07:09:17.005Z,5.57
2018-11-14T07:11:46.087Z,5.70
2018-11-14T07:14:26.313Z,5.77
2018-11-14T07:16:55.367Z,6.10
2018-11-14T07:19:28.322Z,5.90
2018-11-14T07:21:58.393Z,5.10
2018-11-14T07:24:29.323Z,6.17
2018-11-14T07:27:03.883Z,6.10
2018-11-14T07:29:32.810Z,5.60
2018-11-14T07:32:18.478Z,5.87
2018-11-14T07:34:47.298Z,7.27
2018-11-14T07:37:29.793Z,7.07
2018-11-14T07:39:58.825Z,6.07
2018-11-14T07:42:27.830Z,6.93
2018-11-14T07:48:02.897Z,6.03
2018-11-14T07:50:33.098Z,6.27
2018-11-14T07:53:14.235Z,6.07
2018-11-14T07:55:43.117Z,6.40
2018-11-14T07:58:12.049Z,6.37
2018-11-14T08:00:50.672Z,5.80
2018-11-14T08:03:19.593Z,5.67
2018-11-14T08:05:48.551Z,5.07
2018-11-14T08:08:21.152Z,5.60
2018-11-14T08:11:04.759Z,5.10
2018-11-14T08:13:58.719Z,6.03
2018-11-14T08:16:45.582Z,5.63
2018-11-14T08:19:15.582Z,6.23
2018-11-14T08:21:46.658Z,5.67
2018-11-14T08:24:24.051Z,5.57
2018-11-14T08:26:55.441Z,5.57
2018-11-14T08:29:24.440Z,5.97
2018-11-14T08:32:00.163Z,5.43
2018-11-14T08:34:44.542Z,5.60
2018-11-14T08:37:14.255Z,5.83
2018-11-14T08:39:48.268Z,5.50
2018-11-14T08:42:19.023Z,5.83
2018-11-14T08:44:52.234Z,5.80
2018-11-14T08:47:29.675Z,6.00
2018-11-14T08:49:59.153Z,5.77
2018-11-14T08:52:30.150Z,5.77
2018-11-14T08:57:53.732Z,5.73
2018-11-14T09:00:24.317Z,6.13
2018-11-14T09:02:53.504Z,5.90
2018-11-14T09:05:22.450Z,6.07
2018-11-14T09:07:51.592Z,5.93
2018-11-14T09:10:27.560Z,7.07
2018-11-14T09:12:57.611Z,6.10
2018-11-14T09:15:33.545Z,6.80
2018-11-14T09:18:02.500Z,5.57
2018-11-14T09:20:31.360Z,6.20
2018-11-14T09:23:06.787Z,6.50
2018-11-14T09:25:53.884Z,6.13
2018-11-14T09:28:22.935Z,6.43
2018-11-14T09:30:52.919Z,6.23
2018-11-14T09:33:21.934Z,5.80
2018-11-14T09:36:07.920Z,6.33
2018-11-14T09:38:36.920Z,7.07
2018-11-14T09:41:05.964Z,6.90
2018-11-14T09:43:35.021Z,6.73
2018-11-14T09:46:09.495Z,5.73
2018-11-14T09:48:38.480Z,7.17
2018-11-14T09:54:16.990Z,7.00
2018-11-14T09:56:52.373Z,6.50
2018-11-14T09:59:22.333Z,7.33
2018-11-14T10:01:51.264Z,7.00
2018-11-14T10:04:25.422Z,6.33
2018-11-14T10:10:07.663Z,7.20
2018-11-14T10:12:36.772Z,7.00
2018-11-14T10:15:07.804Z,7.47
2018-11-14T10:17:41.731Z,8.53
2018-11-14T10:20:15.069Z,7.47
2018-11-14T10:22:44.430Z,7.70
2018-11-14T10:25:20.516Z,7.17
2018-11-14T10:27:56.189Z,6.57
2018-11-14T10:30:37.216Z,7.87
2018-11-14T10:33:13.414Z,7.20
2018-11-14T10:35:44.393Z,7.23
2018-11-14T10:38:13.317Z,7.37
2018-11-14T10:40:42.253Z,7.53
2018-11-14T10:43:20.817Z,7.40
2018-11-14T10:45:54.275Z,7.90
2018-11-14T10:48:36.964Z,7.93
2018-11-14T10:51:05.921Z,7.57
2018-11-14T10:53:34.761Z,8.00
2018-11-14T10:56:03.736Z,7.70
2018-11-14T10:58:32.816Z,8.27
2018-11-14T11:01:06.922Z,8.23
2018-11-14T11:03:37.119Z,8.33
2018-11-14T11:06:10.220Z,8.23
2018-11-14T11:08:47.810Z,8.50
2018-11-14T11:11:18.017Z,8.53
2018-11-14T11:14:09.154Z,9.60
2018-11-14T11:17:40.883Z,9.10
2018-11-14T11:20:09.732Z,9.10
2018-11-14T11:22:38.657Z,9.57
2018-11-14T11:25:26.020Z,8.77
2018-11-14T11:28:11.940Z,9.70
2018-11-14T11:30:46.767Z,8.17
2018-11-14T11:33:19.862Z,8.60
2018-11-14T11:35:48.825Z,8.27
2018-11-14T11:38:18.010Z,8.17
2018-11-14T11:40:46.849Z,8.40
2018-11-14T11:43:20.526Z,7.90
2018-11-14T11:45:49.442Z,8.27
2018-11-14T11:48:21.689Z,7.50
2018-11-14T11:50:50.606Z,8.60
2018-11-14T11:56:33.803Z,7.60
2018-11-14T11:59:02.784Z,7.40
2018-11-14T12:01:31.680Z,7.70
2018-11-14T12:04:00.610Z,7.63
2018-11-14T12:06:29.701Z,8.07
2018-11-14T12:08:58.598Z,7.13
2018-11-14T12:14:28.468Z,7.03
2018-11-14T12:16:57.377Z,6.73
2018-11-14T12:19:26.417Z,6.47
2018-11-14T12:21:56.587Z,6.00
2018-11-14T12:24:45.020Z,6.57
2018-11-14T12:27:13.972Z,5.60
2018-11-14T12:29:56.491Z,5.60
2018-11-14T12:35:36.745Z,4.47
2018-11-14T12:38:08.988Z,5.07
2018-11-14T12:40:48.508Z,4.77
2018-11-14T12:43:26.289Z,4.80
2018-11-14T12:45:59.350Z,4.90
2018-11-14T12:48:28.306Z,4.63
2018-11-14T12:51:09.950Z,4.60
2018-11-14T12:53:55.478Z,4.00
2018-11-14T12:56:28.323Z,3.90
2018-11-14T12:58:57.198Z,4.17
2018-11-14T13:01:26.084Z,3.43
2018-11-14T13:03:54.954Z,3.50
2018-11-14T13:06:23.905Z,3.50
2018-11-14T13:08:52.877Z,3.20
2018-11-14T13:11:31.394Z,3.10
2018-11-14T13:14:10.514Z,3.10
2018-11-14T13:16:39.528Z,3.10
2018-11-14T13:19:08.474Z,4.07
2018-11-14T13:21:40.588Z,3.50
2018-11-14T13:24:13.582Z,3.03
2018-11-14T13:26:48.108Z,3.03
2018-11-14T13:29:37.879Z,3.57
2018-11-14T13:32:06.803Z,3.60
2018-11-14T13:34:35.739Z,3.30
2018-11-14T13:37:04.620Z,3.60
2018-11-14T13:39:33.514Z,3.07
2018-11-14T13:42:02.426Z,3.77
2018-11-14T13:44:31.311Z,4.00
2018-11-14T13:47:00.263Z,4.13
2018-11-14T13:49:29.192Z,4.23
2018-11-14T13:55:05.851Z,4.00
2018-11-14T13:57:48.962Z,3.60
2018-11-14T14:00:25.075Z,4.30
2018-11-14T14:02:54.481Z,3.77
2018-11-14T14:05:24.457Z,3.50
2018-11-14T14:07:59.568Z,4.30
2018-11-14T14:10:36.557Z,3.70
2018-11-14T14:13:05.899Z,3.90
2018-11-14T14:15:35.348Z,4.40
2018-11-14T14:18:26.827Z,4.03
2018-11-14T14:21:01.644Z,4.00
2018-11-14T14:23:34.766Z,3.87
2018-11-14T14:26:03.803Z,3.40
2018-11-14T14:28:32.730Z,3.90
2018-11-14T14:31:01.727Z,4.20
2018-11-14T14:33:30.669Z,3.97
2018-11-14T14:38:54.275Z,3.63
2018-11-14T14:41:29.620Z,4.50
2018-11-14T14:44:02.956Z,4.37
2018-11-14T14:46:32.002Z,4.00
2018-11-14T14:49:01.039Z,5.03
2018-11-14T14:51:30.085Z,4.50
2018-11-14T14:54:11.187Z,3.90
2018-11-14T14:56:40.079Z,3.50
2018-11-14T14:59:09.093Z,3.97
2018-11-14T15:01:45.057Z,3.80
2018-11-14T15:04:17.497Z,3.90
2018-11-14T15:06:57.060Z,3.70
2018-11-14T15:09:27.990Z,3.37
2018-11-14T15:11:56.893Z,3.37
2018-11-14T15:14:26.650Z,3.80
2018-11-14T15:16:57.568Z,3.40
2018-11-14T15:19:43.273Z,3.60
2018-11-14T15:22:16.268Z,3.23
2018-11-14T15:24:45.315Z,3.07
2018-11-14T15:27:27.889Z,3.37
2018-11-14T15:30:12.161Z,3.00
2018-11-14T15:32:45.708Z,3.17
2018-11-14T15:35:24.396Z,3.07
2018-11-14T15:37:56.978Z,3.03
2018-11-14T15:40:28.366Z,3.07
2018-11-14T15:42:57.423Z,3.40
2018-11-14T15:45:28.421Z,3.03
2018-11-14T15:48:05.142Z,3.07
2018-11-14T15:50:38.431Z,3.60
2018-11-14T15:53:09.445Z,2.77
2018-11-14T15:55:42.325Z,3.57
2018-11-14T15:58:12.334Z,3.27
2018-11-14T16:00:44.935Z,3.33
2018-11-14T16:03:13.850Z,3.70
2018-11-14T16:05:47.386Z,3.20
2018-11-14T16:08:26.413Z,3.27
2018-11-14T16:11:01.852Z,3.73
2018-11-14T16:13:31.947Z,4.10
2018-11-14T16:16:09.181Z,4.13
2018-11-14T16:18:43.569Z,2.90
2018-11-14T16:21:12.645Z,3.30
2018-11-14T16:24:04.597Z,3.13
2018-11-14T16:26:41.650Z,3.37
2018-11-14T16:29:16.400Z,3.73
2018-11-14T16:31:58.115Z,3.07
2018-11-14T16:34:41.797Z,3.53
2018-11-14T16:37:23.280Z,3.70
2018-11-14T16:39:53.204Z,4.40
2018-11-14T16:42:23.592Z,4.10
2018-11-14T16:44:54.766Z,3.77
2018-11-14T16:47:28.753Z,4.00
2018-11-14T16:50:01.388Z,4.60
2018-11-14T16:52:36.503Z,5.20
2018-11-14T16:55:14.155Z,4.30
2018-11-14T16:57:48.261Z,4.13
2018-11-14T17:00:24.764Z,3.40
2018-11-14T17:02:56.892Z,4.00
2018-11-14T17:05:46.516Z,3.40
2018-11-14T17:08:16.436Z,3.87
2018-11-14T17:10:47.447Z,3.53
2018-11-14T17:13:20.553Z,3.50
2018-11-14T17:15:49.492Z,3.10
2018-11-14T17:18:22.265Z,3.57
2018-11-14T17:20:52.559Z,2.87
2018-11-14T17:23:21.599Z,3.40
2018-11-14T17:25:53.693Z,3.57
2018-11-14T17:28:26.577Z,3.73
2018-11-14T17:30:55.550Z,4.23
2018-11-14T17:33:24.581Z,3.57
2018-11-14T17:35:59.773Z,3.10
2018-11-14T17:38:28.642Z,3.83
2018-11-14T17:40:58.570Z,3.60
2018-11-14T17:43:27.613Z,3.50
2018-11-14T17:46:08.755Z,3.67
2018-11-14T17:48:41.141Z,2.93
2018-11-14T17:51:15.971Z,3.10
2018-11-14T17:53:53.158Z,3.60
2018-11-14T17:56:29.068Z,3.03
2018-11-14T17:59:00.262Z,3.70
2018-11-14T18:01:34.427Z,3.40
2018-11-14T18:04:13.689Z,3.50
2018-11-14T18:06:46.231Z,3.83
2018-11-14T18:09:17.481Z,3.73
2018-11-14T18:11:46.398Z,3.60
2018-11-14T18:14:31.546Z,3.50
2018-11-14T18:17:03.149Z,3.20
2018-11-14T18:19:36.340Z,4.10
2018-11-14T18:22:05.737Z,3.93
2018-11-14T18:24:36.130Z,3.60
2018-11-14T18:27:05.363Z,4.17
2018-11-14T18:29:36.266Z,3.67
2018-11-14T18:32:11.142Z,4.27
2018-11-14T18:34:41.078Z,4.20
2018-11-14T18:37:26.157Z,3.63
2018-11-14T18:40:01.341Z,4.00
2018-11-14T18:42:42.630Z,3.60
2018-11-14T18:45:19.667Z,3.80
2018-11-14T18:47:48.904Z,3.93
2018-11-14T18:50:25.223Z,3.70
2018-11-14T18:53:04.325Z,3.50
2018-11-14T18:55:43.171Z,3.50
2018-11-14T18:58:19.943Z,3.70
2018-11-14T19:00:51.050Z,3.80
2018-11-14T19:03:24.012Z,3.57
2018-11-14T19:05:53.899Z,3.63
2018-11-14T19:08:26.635Z,3.77
2018-11-14T19:11:00.835Z,3.70
2018-11-14T19:13:33.698Z,4.27
2018-11-14T19:16:12.707Z,4.40
2018-11-14T19:18:44.676Z,3.73
2018-11-14T19:21:13.529Z,3.70
2018-11-14T19:23:46.714Z,3.97
2018-11-14T19:26:18.513Z,3.70
2018-11-14T19:28:51.502Z,3.70
2018-11-14T19:31:26.393Z,3.57
2018-11-14T19:34:02.359Z,3.63
2018-11-14T19:36:36.385Z,3.80
2018-11-14T19:39:10.823Z,3.47
2018-11-14T19:41:39.954Z,3.47
2018-11-14T19:44:14.878Z,4.40
2018-11-14T19:46:47.412Z,3.20
2018-11-14T19:49:18.679Z,3.47
2018-11-14T19:52:10.963Z,3.50
2018-11-14T19:54:44.547Z,3.17
2018-11-14T19:57:13.545Z,3.20
2018-11-14T19:59:46.558Z,3.83
2018-11-14T20:02:21.602Z,3.80
2018-11-14T20:05:15.183Z,3.03
2018-11-14T20:07:48.710Z,3.37
2018-11-14T20:10:19.196Z,3.60
2018-11-14T20:12:49.791Z,3.83
2018-11-14T20:15:22.162Z,3.80
2018-11-14T20:18:03.812Z,3.47
2018-11-14T20:20:36.262Z,3.70
2018-11-14T20:23:06.396Z,4.27
2018-11-14T20:25:37.447Z,4.17
2018-11-14T20:28:06.623Z,6.17
2018-11-14T20:30:38.056Z,4.40
2018-11-14T20:33:17.903Z,4.57
2018-11-14T20:35:48.837Z,4.27
2018-11-14T20:38:22.237Z,3.73
2018-11-14T20:40:55.139Z,4.27
2018-11-14T20:43:34.298Z,4.13
2018-11-14T20:46:11.390Z,4.27
2018-11-14T20:48:45.789Z,4.10
2018-11-14T20:51:18.780Z,4.63
2018-11-14T20:53:48.758Z,4.10
2018-11-14T20:56:17.996Z,4.70
2018-11-14T20:58:50.095Z,4.63
2018-11-14T21:01:25.440Z,5.07
2018-11-14T21:03:55.047Z,4.83
2018-11-14T21:06:30.702Z,4.90
2018-11-14T21:09:07.699Z,5.70
2018-11-14T21:11:40.126Z,5.23
2018-11-14T21:14:09.110Z,5.73
2018-11-14T21:16:53.941Z,5.70
2018-11-14T21:19:25.137Z,5.77
2018-11-14T21:21:55.180Z,5.47
2018-11-14T21:24:27.909Z,5.77
2018-11-14T21:26:57.855Z,5.73
2018-11-14T21:29:30.522Z,5.63
2018-11-14T21:32:17.231Z,6.13
2018-11-14T21:34:46.182Z,5.60
2018-11-14T21:37:17.086Z,6.40
2018-11-14T21:40:02.343Z,5.43
2018-11-14T21:42:31.218Z,5.80
2018-11-14T21:45:04.816Z,6.10
2018-11-14T21:47:45.326Z,6.40
2018-11-14T21:50:16.036Z,5.97
2018-11-14T21:52:46.259Z,6.17
2018-11-14T21:55:16.315Z,5.90
2018-11-14T21:57:45.256Z,6.70
2018-11-14T22:00:32.976Z,6.80
2018-11-14T22:03:10.902Z,7.13
2018-11-14T22:05:40.846Z,5.83
2018-11-14T22:08:26.483Z,6.27
2018-11-14T22:11:08.068Z,6.50
2018-11-14T22:13:43.024Z,6.57
2018-11-14T22:16:16.873Z,6.33
2018-11-14T22:18:45.865Z,6.43
2018-11-14T22:21:14.770Z,7.10
2018-11-14T22:23:43.621Z,6.97
2018-11-14T22:26:12.594Z,7.37
2018-11-14T22:28:41.526Z,7.03
2018-11-14T22:31:12.421Z,7.30
2018-11-14T22:33:51.339Z,7.63
2018-11-14T22:36:20.208Z,7.67
2018-11-14T22:38:49.132Z,7.27
2018-11-14T22:41:29.985Z,7.93
2018-11-14T22:44:12.590Z,7.30
2018-11-14T22:46:41.535Z,6.63
2018-11-14T22:49:28.024Z,7.00
2018-11-14T22:51:56.936Z,7.50
2018-11-14T22:54:28.144Z,7.23
2018-11-14T22:57:00.417Z,7.97
2018-11-14T23:02:23.165Z,7.93
2018-11-14T23:04:52.207Z,7.93
2018-11-14T23:07:21.100Z,8.30
2018-11-14T23:09:52.068Z,7.63
2018-11-14T23:12:21.012Z,8.17
2018-11-14T23:14:51.000Z,8.30
2018-11-14T23:17:23.716Z,7.90
2018-11-14T23:20:07.222Z,8.10
2018-11-14T23:22:46.366Z,8.70
2018-11-14T23:25:26.576Z,8.87
2018-11-14T23:27:58.986Z,9.20
2018-11-14T23:30:44.830Z,10.00
2018-11-14T23:33:33.520Z,10.10
2018-11-14T23:36:09.623Z,10.73
2018-11-14T23:38:50.307Z,10.83
2018-11-14T23:41:30.308Z,10.77
2018-11-14T23:44:02.810Z,10.77
2018-11-14T23:46:45.310Z,11.30
2018-11-14T23:52:10.129Z,11.63
2018-11-14T23:54:39.124Z,12.07
2018-11-14T23:57:17.764Z,11.73
2018-11-14T23:59:46.772Z,12.10
